createdAt,value
2017-05-21T00:01:39.941Z,34.33
2017-05-21T00:04:08.311Z,33.80
2017-05-21T00:06:36.586Z,32.40
2017-05-21T00:09:04.862Z,34.30
2017-05-21T00:11:33.069Z,34.42
2017-05-21T00:14:01.335Z,34.05
2017-05-21T00:16:29.555Z,34.12
2017-05-21T00:18:57.916Z,33.85
2017-05-21T00:21:26.142Z,33.93
2017-05-21T00:23:54.362Z,32.43
2017-05-21T00:26:22.623Z,34.85
2017-05-21T00:28:50.827Z,31.97
2017-05-21T00:31:19.143Z,38.28
2017-05-21T00:33:47.442Z,33.70
2017-05-21T00:36:15.663Z,32.90
2017-05-21T00:38:43.888Z,33.88
2017-05-21T00:41:12.135Z,32.78
2017-05-21T00:43:40.425Z,34.78
2017-05-21T00:46:08.705Z,34.82
2017-05-21T00:48:36.946Z,32.72
2017-05-21T00:51:05.201Z,33.27
2017-05-21T00:53:33.382Z,34.93
2017-05-21T00:56:01.603Z,35.17
2017-05-21T00:58:29.870Z,33.87
2017-05-21T01:00:58.212Z,32.25
2017-05-21T01:03:26.445Z,34.18
2017-05-21T01:05:54.671Z,32.73
2017-05-21T01:08:22.893Z,33.52
2017-05-21T01:10:51.106Z,34.18
2017-05-21T01:13:19.420Z,31.78
2017-05-21T01:15:47.631Z,30.04
2017-05-21T01:18:15.852Z,29.55
2017-05-21T01:20:44.067Z,29.38
2017-05-21T01:23:12.283Z,31.37
2017-05-21T01:25:40.582Z,29.00
2017-05-21T01:28:08.806Z,30.32
2017-05-21T01:30:37.138Z,29.32
2017-05-21T01:33:05.357Z,30.62
2017-05-21T01:35:33.569Z,29.08
2017-05-21T01:38:01.861Z,28.80
2017-05-21T01:40:30.131Z,30.92
2017-05-21T01:42:58.508Z,30.55
2017-05-21T01:45:26.784Z,30.20
2017-05-21T01:47:55.067Z,29.38
2017-05-21T01:50:23.431Z,30.15
2017-05-21T01:52:51.724Z,29.42
2017-05-21T01:55:19.949Z,29.94
2017-05-21T01:57:48.174Z,28.72
2017-05-21T02:00:16.379Z,29.25
2017-05-21T02:02:44.606Z,29.28
2017-05-21T02:05:12.897Z,32.75
2017-05-21T02:07:41.124Z,29.95
2017-05-21T02:10:09.339Z,30.68
2017-05-21T02:12:37.610Z,28.42
2017-05-21T02:15:05.830Z,30.88
2017-05-21T02:17:34.239Z,30.90
2017-05-21T02:20:02.469Z,30.60
2017-05-21T02:22:30.703Z,32.10
2017-05-21T02:24:58.915Z,30.48
2017-05-21T02:27:27.172Z,30.57
2017-05-21T02:29:55.426Z,32.27
2017-05-21T02:32:23.718Z,30.48
2017-05-21T02:34:51.931Z,32.57
2017-05-21T02:37:20.182Z,31.17
2017-05-21T02:39:48.395Z,31.22
2017-05-21T02:42:16.722Z,32.53
2017-05-21T02:44:44.944Z,31.92
2017-05-21T02:47:13.178Z,35.20
2017-05-21T02:49:41.396Z,31.82
2017-05-21T02:52:09.607Z,31.97
2017-05-21T02:54:37.880Z,31.17
2017-05-21T02:57:06.112Z,30.88
2017-05-21T02:59:34.350Z,31.23
2017-05-21T03:02:02.569Z,32.72
2017-05-21T03:04:30.879Z,30.95
2017-05-21T03:06:59.183Z,31.70
2017-05-21T03:09:27.441Z,30.90
2017-05-21T03:11:55.812Z,32.82
2017-05-21T03:14:24.032Z,31.87
2017-05-21T03:16:52.275Z,32.07
2017-05-21T03:19:20.498Z,32.15
2017-05-21T03:21:48.734Z,32.28
2017-05-21T03:24:17.001Z,34.03
2017-05-21T03:26:45.211Z,33.23
2017-05-21T03:29:13.438Z,35.17
2017-05-21T03:31:41.650Z,34.70
2017-05-21T03:34:09.869Z,35.80
2017-05-21T03:36:38.158Z,35.90
2017-05-21T03:39:06.422Z,36.35
2017-05-21T03:41:34.700Z,36.75
2017-05-21T03:44:02.935Z,41.88
2017-05-21T03:46:31.151Z,40.84
2017-05-21T03:48:59.435Z,42.20
2017-05-21T03:51:27.687Z,43.40
2017-05-21T03:53:55.907Z,44.88
2017-05-21T03:56:24.140Z,43.22
2017-05-21T03:58:52.356Z,46.56
2017-05-21T04:01:20.575Z,47.83
2017-05-21T04:03:48.798Z,47.97
2017-05-21T04:06:17.011Z,48.07
2017-05-21T04:08:45.334Z,47.70
2017-05-21T04:11:13.538Z,47.07
2017-05-21T04:13:41.784Z,47.63
2017-05-21T04:16:10.027Z,47.50
2017-05-21T04:18:38.252Z,47.00
2017-05-21T04:21:06.495Z,47.67
2017-05-21T04:23:34.771Z,47.18
2017-05-21T04:26:03.065Z,46.70
2017-05-21T04:28:31.279Z,45.38
2017-05-21T04:30:59.602Z,45.08
2017-05-21T04:33:27.811Z,46.00
2017-05-21T04:35:56.148Z,45.87
2017-05-21T04:38:24.374Z,44.48
2017-05-21T04:40:52.592Z,44.52
2017-05-21T04:43:20.878Z,42.58
2017-05-21T04:45:49.128Z,44.33
2017-05-21T04:48:17.415Z,42.10
2017-05-21T04:50:45.626Z,43.07
2017-05-21T04:53:13.866Z,40.87
2017-05-21T04:55:42.145Z,42.45
2017-05-21T04:58:10.427Z,42.23
2017-05-21T05:00:38.710Z,43.82
2017-05-21T05:03:06.938Z,41.38
2017-05-21T05:05:35.249Z,43.20
2017-05-21T05:08:03.463Z,43.25
2017-05-21T05:10:31.805Z,40.48
2017-05-21T05:13:00.087Z,41.72
2017-05-21T05:15:28.312Z,41.42
2017-05-21T05:17:56.658Z,42.98
2017-05-21T05:20:24.911Z,39.22
2017-05-21T05:22:53.131Z,40.03
2017-05-21T05:25:21.587Z,39.40
2017-05-21T05:27:49.125Z,38.10
2017-05-21T05:30:17.335Z,37.62
2017-05-21T05:32:45.563Z,37.52
2017-05-21T05:35:13.842Z,38.18
2017-05-21T05:37:42.121Z,35.52
2017-05-21T05:40:10.392Z,32.77
2017-05-21T05:42:38.664Z,33.25
2017-05-21T05:45:06.925Z,33.10
2017-05-21T05:47:35.213Z,32.48
2017-05-21T05:50:03.558Z,32.57
2017-05-21T05:52:31.766Z,30.88
2017-05-21T05:55:00.000Z,33.07
2017-05-21T05:57:28.215Z,32.20
2017-05-21T05:59:56.443Z,31.05
2017-05-21T06:02:24.683Z,31.78
2017-05-21T06:04:53.320Z,30.43
2017-05-21T06:07:21.539Z,29.22
2017-05-21T06:09:49.774Z,30.23
2017-05-21T06:12:18.262Z,29.40
2017-05-21T06:14:46.478Z,29.68
2017-05-21T06:17:14.703Z,28.40
2017-05-21T06:19:42.939Z,26.78
2017-05-21T06:22:11.195Z,26.38
2017-05-21T06:24:39.443Z,26.15
2017-05-21T06:27:07.679Z,25.90
2017-05-21T06:29:35.915Z,24.82
2017-05-21T06:32:04.167Z,23.58
2017-05-21T06:34:32.378Z,24.22
2017-05-21T06:37:01.017Z,24.43
2017-05-21T06:39:29.230Z,22.02
2017-05-21T06:41:57.454Z,20.76
2017-05-21T06:44:25.687Z,22.55
2017-05-21T06:46:53.906Z,19.62
2017-05-21T06:49:22.217Z,20.02
2017-05-21T06:51:50.587Z,20.16
2017-05-21T06:54:18.835Z,19.70
2017-05-21T06:56:47.049Z,20.53
2017-05-21T06:59:15.267Z,20.88
2017-05-21T07:01:43.611Z,20.75
2017-05-21T07:04:11.834Z,20.55
2017-05-21T07:06:40.118Z,21.37
2017-05-21T07:09:08.431Z,19.68
2017-05-21T07:11:36.667Z,18.88
2017-05-21T07:14:04.891Z,19.43
2017-05-21T07:16:33.134Z,18.48
2017-05-21T07:19:01.399Z,17.52
2017-05-21T07:21:29.629Z,18.92
2017-05-21T07:23:58.060Z,18.78
2017-05-21T07:26:26.691Z,15.62
2017-05-21T07:28:54.915Z,16.18
2017-05-21T07:31:23.143Z,15.70
2017-05-21T07:33:51.467Z,14.90
2017-05-21T07:36:19.695Z,16.62
2017-05-21T07:38:47.928Z,15.55
2017-05-21T07:41:16.153Z,14.45
2017-05-21T07:43:44.408Z,14.40
2017-05-21T07:46:12.639Z,15.07
2017-05-21T07:48:40.947Z,13.92
2017-05-21T07:51:09.267Z,13.05
2017-05-21T07:53:37.491Z,12.53
2017-05-21T07:56:05.723Z,13.82
2017-05-21T07:58:33.979Z,13.02
2017-05-21T08:01:02.209Z,13.25
2017-05-21T08:03:30.667Z,12.32
2017-05-21T08:05:58.889Z,11.67
2017-05-21T08:08:27.110Z,11.93
2017-05-21T08:10:55.496Z,12.14
2017-05-21T08:13:23.758Z,11.73
2017-05-21T08:15:52.140Z,11.48
2017-05-21T08:18:20.437Z,11.35
2017-05-21T08:20:48.646Z,11.82
2017-05-21T08:23:16.985Z,10.90
2017-05-21T08:25:45.264Z,9.53
2017-05-21T08:28:13.523Z,9.50
2017-05-21T08:30:40.978Z,9.17
2017-05-21T08:33:09.339Z,6.80
2017-05-21T08:35:37.536Z,7.90
2017-05-21T08:38:05.884Z,8.85
2017-05-21T08:40:34.205Z,9.08
2017-05-21T08:43:02.407Z,9.00
2017-05-21T08:45:30.638Z,8.32
2017-05-21T08:47:59.013Z,8.00
2017-05-21T08:50:27.308Z,7.50
2017-05-21T08:52:55.503Z,7.26
2017-05-21T08:55:23.749Z,7.53
2017-05-21T08:57:52.191Z,7.82
2017-05-21T09:00:20.431Z,7.90
2017-05-21T09:02:48.635Z,7.63
2017-05-21T09:05:16.843Z,6.70
2017-05-21T09:07:45.297Z,6.80
2017-05-21T09:10:13.512Z,5.35
2017-05-21T09:12:41.790Z,5.40
2017-05-21T09:15:10.041Z,6.06
2017-05-21T09:17:38.317Z,6.57
2017-05-21T09:20:06.550Z,6.27
2017-05-21T09:22:34.758Z,6.17
2017-05-21T09:25:03.003Z,6.55
2017-05-21T09:27:31.299Z,5.94
2017-05-21T09:29:59.712Z,5.60
2017-05-21T09:32:27.987Z,5.46
2017-05-21T09:34:56.207Z,6.25
2017-05-21T09:37:24.543Z,5.92
2017-05-21T09:39:52.810Z,4.97
2017-05-21T09:42:21.021Z,4.55
2017-05-21T09:44:49.255Z,5.00
2017-05-21T09:47:17.513Z,5.12
2017-05-21T09:49:45.847Z,5.02
2017-05-21T09:52:14.052Z,5.60
2017-05-21T09:54:42.284Z,6.50
2017-05-21T09:57:10.503Z,5.80
2017-05-21T09:59:38.731Z,6.07
2017-05-21T10:02:06.977Z,4.82
2017-05-21T10:04:35.212Z,4.90
2017-05-21T10:07:03.527Z,4.70
2017-05-21T10:09:31.743Z,4.80
2017-05-21T10:12:00.158Z,5.22
2017-05-21T10:14:28.437Z,3.90
2017-05-21T10:16:57.558Z,4.63
2017-05-21T10:19:25.828Z,4.05
2017-05-21T10:21:54.053Z,4.10
2017-05-21T10:24:22.315Z,4.37
2017-05-21T10:26:50.531Z,4.34
2017-05-21T10:29:18.844Z,4.77
2017-05-21T10:31:47.065Z,4.78
2017-05-21T10:34:15.375Z,5.40
2017-05-21T10:36:43.607Z,5.42
2017-05-21T10:39:11.942Z,5.42
2017-05-21T10:41:40.204Z,4.02
2017-05-21T10:44:08.551Z,4.60
2017-05-21T10:46:36.783Z,4.75
2017-05-21T10:49:05.241Z,3.80
2017-05-21T10:51:33.505Z,4.57
2017-05-21T10:54:01.780Z,4.30
2017-05-21T10:56:30.011Z,3.98
2017-05-21T10:58:58.229Z,3.77
2017-05-21T11:01:26.498Z,3.95
2017-05-21T11:03:54.777Z,4.53
2017-05-21T11:06:22.987Z,3.70
2017-05-21T11:08:51.196Z,4.50
2017-05-21T11:11:19.506Z,4.12
2017-05-21T11:13:47.824Z,4.17
2017-05-21T11:16:16.066Z,3.70
2017-05-21T11:18:44.452Z,4.23
2017-05-21T11:21:12.682Z,4.36
2017-05-21T11:23:41.005Z,4.62
2017-05-21T11:26:09.330Z,4.18
2017-05-21T11:28:37.523Z,3.60
2017-05-21T11:31:05.762Z,2.93
2017-05-21T11:33:34.081Z,2.80
2017-05-21T11:36:02.367Z,4.50
2017-05-21T11:38:30.652Z,4.00
2017-05-21T11:40:58.880Z,4.05
2017-05-21T11:43:27.192Z,3.90
2017-05-21T11:45:55.462Z,3.86
2017-05-21T11:48:23.706Z,3.15
2017-05-21T11:50:51.921Z,3.37
2017-05-21T11:53:20.250Z,3.44
2017-05-21T11:55:48.570Z,3.30
2017-05-21T11:58:16.776Z,2.63
2017-05-21T12:00:45.003Z,3.87
2017-05-21T12:03:13.315Z,3.40
2017-05-21T12:05:41.546Z,4.28
2017-05-21T12:08:09.758Z,3.40
2017-05-21T12:10:38.008Z,3.23
2017-05-21T12:13:06.216Z,3.88
2017-05-21T12:15:34.414Z,3.58
2017-05-21T12:18:02.647Z,3.70
2017-05-21T12:20:30.870Z,2.80
2017-05-21T12:22:59.177Z,2.78
2017-05-21T12:25:27.531Z,5.77
2017-05-21T12:27:55.836Z,2.93
2017-05-21T12:30:24.046Z,2.52
2017-05-21T12:32:52.269Z,3.08
2017-05-21T12:35:20.563Z,3.03
2017-05-21T12:37:48.767Z,3.02
2017-05-21T12:40:17.013Z,3.45
2017-05-21T12:42:45.294Z,4.68
2017-05-21T12:45:13.542Z,2.80
2017-05-21T12:47:41.738Z,3.66
2017-05-21T12:50:09.964Z,2.73
2017-05-21T12:52:37.405Z,2.98
2017-05-21T12:55:05.639Z,3.05
2017-05-21T12:57:33.889Z,3.00
2017-05-21T13:00:02.187Z,3.10
2017-05-21T13:02:30.467Z,3.00
2017-05-21T13:04:58.730Z,2.90
2017-05-21T13:07:26.946Z,2.63
2017-05-21T13:09:55.164Z,2.90
2017-05-21T13:12:23.459Z,3.18
2017-05-21T13:14:51.676Z,3.10
2017-05-21T13:17:19.940Z,2.80
2017-05-21T13:19:48.167Z,2.83
2017-05-21T13:22:16.438Z,2.90
2017-05-21T13:24:44.672Z,3.10
2017-05-21T13:27:12.899Z,3.10
2017-05-21T13:29:41.191Z,3.55
2017-05-21T13:32:09.444Z,3.10
2017-05-21T13:34:37.731Z,3.10
2017-05-21T13:37:06.826Z,2.70
2017-05-21T13:39:35.091Z,3.00
2017-05-21T13:42:03.315Z,2.50
2017-05-21T13:44:31.569Z,2.68
2017-05-21T13:46:59.847Z,2.82
2017-05-21T13:49:28.071Z,3.10
2017-05-21T13:51:56.414Z,2.95
2017-05-21T13:54:24.651Z,2.90
2017-05-21T13:56:52.850Z,2.80
2017-05-21T13:59:21.138Z,2.50
2017-05-21T14:01:49.368Z,2.93
2017-05-21T14:04:17.638Z,2.70
2017-05-21T14:06:45.846Z,2.73
2017-05-21T14:09:14.102Z,2.90
2017-05-21T14:11:42.319Z,2.60
2017-05-21T14:14:10.529Z,3.32
2017-05-21T14:16:38.755Z,2.87
2017-05-21T14:19:06.990Z,3.25
2017-05-21T14:21:35.294Z,2.90
2017-05-21T14:24:03.503Z,2.90
2017-05-21T14:26:31.726Z,3.17
2017-05-21T14:28:59.946Z,2.60
2017-05-21T14:31:28.256Z,3.50
2017-05-21T14:33:56.515Z,3.50
2017-05-21T14:36:24.837Z,3.60
2017-05-21T14:38:53.072Z,3.28
2017-05-21T14:41:21.274Z,3.32
2017-05-21T14:43:49.521Z,3.27
2017-05-21T14:46:17.814Z,3.20
2017-05-21T14:48:46.039Z,2.80
2017-05-21T14:51:14.291Z,3.15
2017-05-21T14:53:42.511Z,2.95
2017-05-21T14:56:10.763Z,3.00
2017-05-21T14:58:38.988Z,3.00
2017-05-21T15:01:07.207Z,2.88
2017-05-21T15:03:35.461Z,3.15
2017-05-21T15:06:03.756Z,3.20
2017-05-21T15:08:31.981Z,3.10
2017-05-21T15:11:00.170Z,2.97
2017-05-21T15:13:28.435Z,2.70
2017-05-21T15:15:56.710Z,2.32
2017-05-21T15:18:25.004Z,2.57
2017-05-21T15:20:53.214Z,2.35
2017-05-21T15:23:21.480Z,2.33
2017-05-21T15:25:49.690Z,2.15
2017-05-21T15:28:18.004Z,3.05
2017-05-21T15:30:46.252Z,2.73
2017-05-21T15:33:14.538Z,2.65
2017-05-21T15:35:42.781Z,2.90
2017-05-21T15:38:11.081Z,3.67
2017-05-21T15:40:39.438Z,3.32
2017-05-21T15:43:07.655Z,3.85
2017-05-21T15:45:35.866Z,3.52
2017-05-21T15:48:04.098Z,3.60
2017-05-21T15:50:32.387Z,3.43
2017-05-21T15:53:00.598Z,3.25
2017-05-21T15:55:28.922Z,3.60
2017-05-21T15:57:57.131Z,3.26
2017-05-21T16:00:25.368Z,3.98
2017-05-21T16:02:53.566Z,3.78
2017-05-21T16:05:21.856Z,3.47
2017-05-21T16:07:50.090Z,3.90
2017-05-21T16:10:18.298Z,3.65
2017-05-21T16:12:46.553Z,4.02
2017-05-21T16:15:14.751Z,3.56
2017-05-21T16:17:42.979Z,3.33
2017-05-21T16:20:11.178Z,3.55
2017-05-21T16:22:39.780Z,4.40
2017-05-21T16:25:08.002Z,3.87
2017-05-21T16:27:36.216Z,4.20
2017-05-21T16:30:04.459Z,4.40
2017-05-21T16:32:32.675Z,4.28
2017-05-21T16:35:01.843Z,5.02
2017-05-21T16:37:30.055Z,5.00
2017-05-21T16:39:58.258Z,5.02
2017-05-21T16:42:26.467Z,4.60
2017-05-21T16:44:54.703Z,5.03
2017-05-21T16:47:22.921Z,4.73
2017-05-21T16:49:51.147Z,4.95
2017-05-21T16:52:19.366Z,5.70
2017-05-21T16:54:47.583Z,5.50
2017-05-21T16:57:15.793Z,5.97
2017-05-21T16:59:44.172Z,5.15
2017-05-21T17:02:12.419Z,5.10
2017-05-21T17:04:40.735Z,5.40
2017-05-21T17:07:08.952Z,4.90
2017-05-21T17:09:37.250Z,5.47
2017-05-21T17:12:05.549Z,5.12
2017-05-21T17:14:33.923Z,5.13
2017-05-21T17:17:02.158Z,4.98
2017-05-21T17:19:30.366Z,4.50
2017-05-21T17:21:58.595Z,4.88
2017-05-21T17:24:26.805Z,5.28
2017-05-21T17:26:55.035Z,4.48
2017-05-21T17:29:23.287Z,4.97
2017-05-21T17:31:51.507Z,5.17
2017-05-21T17:34:19.857Z,4.60
2017-05-21T17:36:48.877Z,5.50
2017-05-21T17:39:17.693Z,4.80
2017-05-21T17:41:46.308Z,5.70
2017-05-21T17:44:15.063Z,5.10
2017-05-21T17:46:43.857Z,4.68
2017-05-21T17:49:12.947Z,5.27
2017-05-21T17:51:41.839Z,5.40
2017-05-21T17:54:10.727Z,6.44
2017-05-21T17:56:39.047Z,5.88
2017-05-21T17:59:07.260Z,4.87
2017-05-21T18:01:35.518Z,5.48
2017-05-21T18:04:03.851Z,5.10
2017-05-21T18:06:32.066Z,5.12
2017-05-21T18:09:00.291Z,5.07
2017-05-21T18:11:28.507Z,4.88
2017-05-21T18:13:56.721Z,6.15
2017-05-21T18:16:24.948Z,6.00
2017-05-21T18:18:53.178Z,5.40
2017-05-21T18:21:21.416Z,5.40
2017-05-21T18:23:49.630Z,5.45
2017-05-21T18:26:17.855Z,6.20
2017-05-21T18:28:46.075Z,5.10
2017-05-21T18:31:14.308Z,6.14
2017-05-21T18:33:42.522Z,5.48
2017-05-21T18:36:10.826Z,5.20
2017-05-21T18:38:39.094Z,5.80
2017-05-21T18:41:07.322Z,8.17
2017-05-21T18:43:35.527Z,5.50
2017-05-21T18:46:03.756Z,4.73
2017-05-21T18:48:31.976Z,4.92
2017-05-21T18:51:00.268Z,5.04
2017-05-21T18:53:28.580Z,5.17
2017-05-21T18:55:56.820Z,4.42
2017-05-21T18:58:25.031Z,4.33
2017-05-21T19:00:53.378Z,3.85
2017-05-21T19:03:21.581Z,4.20
2017-05-21T19:05:49.831Z,3.77
2017-05-21T19:08:18.059Z,4.10
2017-05-21T19:10:46.344Z,3.90
2017-05-21T19:13:14.566Z,3.88
2017-05-21T19:15:42.898Z,5.10
2017-05-21T19:18:11.170Z,3.90
2017-05-21T19:20:39.388Z,3.80
2017-05-21T19:23:07.619Z,3.53
2017-05-21T19:25:35.833Z,4.22
2017-05-21T19:28:04.044Z,3.78
2017-05-21T19:30:32.358Z,3.93
2017-05-21T19:33:00.650Z,3.60
2017-05-21T19:35:28.857Z,3.65
2017-05-21T19:37:57.097Z,3.92
2017-05-21T19:40:25.339Z,3.48
2017-05-21T19:42:53.543Z,3.70
2017-05-21T19:45:21.871Z,4.13
2017-05-21T19:47:50.080Z,3.60
2017-05-21T19:50:18.287Z,3.70
2017-05-21T19:52:46.507Z,4.08
2017-05-21T19:55:14.733Z,3.30
2017-05-21T19:57:42.958Z,3.72
2017-05-21T20:00:11.182Z,4.22
2017-05-21T20:02:39.779Z,4.17
2017-05-21T20:05:07.995Z,3.65
2017-05-21T20:07:36.225Z,3.86
2017-05-21T20:10:04.426Z,4.05
2017-05-21T20:12:32.839Z,4.03
2017-05-21T20:15:01.094Z,3.18
2017-05-21T20:17:29.308Z,3.60
2017-05-21T20:19:57.523Z,4.00
2017-05-21T20:22:25.757Z,3.50
2017-05-21T20:24:54.082Z,3.62
2017-05-21T20:27:22.385Z,3.63
2017-05-21T20:29:50.687Z,4.08
2017-05-21T20:32:18.929Z,3.17
2017-05-21T20:34:47.140Z,3.96
2017-05-21T20:37:15.383Z,3.87
2017-05-21T20:39:43.616Z,4.10
2017-05-21T20:42:11.815Z,3.77
2017-05-21T20:44:40.047Z,3.68
2017-05-21T20:47:08.247Z,4.10
2017-05-21T20:49:36.564Z,3.72
2017-05-21T20:52:04.800Z,3.43
2017-05-21T20:54:33.025Z,3.75
2017-05-21T20:57:01.395Z,3.70
2017-05-21T20:59:29.636Z,3.42
2017-05-21T21:01:57.844Z,3.50
2017-05-21T21:04:26.060Z,3.50
2017-05-21T21:06:54.289Z,3.87
2017-05-21T21:09:22.558Z,3.53
2017-05-21T21:11:50.827Z,3.55
2017-05-21T21:14:19.074Z,3.55
2017-05-21T21:16:47.404Z,3.45
2017-05-21T21:19:15.643Z,4.02
2017-05-21T21:21:43.994Z,4.13
2017-05-21T21:24:12.287Z,4.33
2017-05-21T21:26:40.504Z,4.32
2017-05-21T21:29:08.743Z,4.62
2017-05-21T21:31:37.006Z,4.60
2017-05-21T21:34:05.272Z,5.02
2017-05-21T21:36:33.507Z,5.00
2017-05-21T21:39:01.747Z,5.22
2017-05-21T21:41:30.027Z,5.77
2017-05-21T21:43:58.288Z,6.20
2017-05-21T21:46:26.530Z,5.70
2017-05-21T21:48:54.730Z,5.95
2017-05-21T21:51:23.010Z,6.23
2017-05-21T21:53:51.279Z,5.98
2017-05-21T21:56:19.483Z,6.70
2017-05-21T21:58:47.713Z,6.30
2017-05-21T22:01:15.993Z,6.53
2017-05-21T22:03:44.267Z,7.56
2017-05-21T22:06:12.631Z,7.07
2017-05-21T22:08:40.919Z,7.80
2017-05-21T22:11:09.119Z,7.95
2017-05-21T22:13:37.340Z,8.20
2017-05-21T22:16:05.546Z,8.50
2017-05-21T22:18:33.759Z,9.08
2017-05-21T22:21:02.039Z,9.43
2017-05-21T22:23:30.234Z,9.02
2017-05-21T22:25:58.551Z,9.60
2017-05-21T22:28:26.783Z,10.20
2017-05-21T22:30:55.024Z,9.70
2017-05-21T22:33:23.231Z,9.80
2017-05-21T22:35:51.479Z,9.92
2017-05-21T22:38:19.710Z,10.57
2017-05-21T22:40:47.923Z,10.40
2017-05-21T22:43:16.158Z,10.20
2017-05-21T22:45:44.447Z,10.83
2017-05-21T22:48:12.723Z,10.67
2017-05-21T22:50:41.095Z,11.08
2017-05-21T22:53:09.464Z,11.12
2017-05-21T22:55:37.678Z,10.82
2017-05-21T22:58:05.953Z,11.22
2017-05-21T23:00:34.270Z,10.83
2017-05-21T23:03:02.545Z,11.43
2017-05-21T23:05:30.778Z,11.77
2017-05-21T23:07:58.996Z,11.73
2017-05-21T23:10:27.294Z,11.62
2017-05-21T23:12:55.528Z,12.02
2017-05-21T23:15:23.738Z,12.35
2017-05-21T23:17:52.018Z,12.20
2017-05-21T23:20:20.247Z,12.03
2017-05-21T23:22:48.569Z,12.10
2017-05-21T23:25:16.786Z,12.48
2017-05-21T23:27:45.030Z,12.05
2017-05-21T23:30:13.252Z,12.54
2017-05-21T23:32:41.659Z,11.97
2017-05-21T23:35:09.895Z,12.45
2017-05-21T23:37:38.219Z,12.35
2017-05-21T23:40:06.518Z,12.80
2017-05-21T23:42:34.773Z,12.58
2017-05-21T23:45:03.046Z,13.10
2017-05-21T23:47:31.310Z,13.00
2017-05-21T23:49:59.594Z,12.95
2017-05-21T23:52:27.857Z,14.30
2017-05-21T23:54:56.077Z,14.30
2017-05-21T23:57:24.332Z,14.00
2017-05-21T23:59:52.543Z,13.90
